sensor_id;sensor_type;location;lat;lon;timestamp;P1;durP1;ratioP1;P2;durP2;ratioP2
12972;SDS011;6551;51.056;9.466;2022-10-13T00:00:30;16.03;;;12.20;;
12972;SDS011;6551;51.056;9.466;2022-10-13T00:02:59;17.30;;;11.97;;
12972;SDS011;6551;51.056;9.466;2022-10-13T00:05:27;23.47;;;13.57;;
12972;SDS011;6551;51.056;9.466;2022-10-13T00:07:54;24.47;;;12.93;;
12972;SDS011;6551;51.056;9.466;2022-10-13T00:10:21;19.97;;;13.63;;
12972;SDS011;6551;51.056;9.466;2022-10-13T00:12:47;17.97;;;12.30;;
12972;SDS011;6551;51.056;9.466;2022-10-13T00:15:12;21.70;;;13.60;;
12972;SDS011;6551;51.056;9.466;2022-10-13T00:17:38;20.37;;;13.50;;
12972;SDS011;6551;51.056;9.466;2022-10-13T00:20:06;21.97;;;13.40;;
12972;SDS011;6551;51.056;9.466;2022-10-13T00:22:33;22.70;;;13.90;;
12972;SDS011;6551;51.056;9.466;2022-10-13T00:24:59;21.10;;;12.73;;
12972;SDS011;6551;51.056;9.466;2022-10-13T00:27:25;19.67;;;11.93;;
12972;SDS011;6551;51.056;9.466;2022-10-13T00:29:50;14.83;;;11.20;;
12972;SDS011;6551;51.056;9.466;2022-10-13T00:32:16;16.87;;;11.20;;
12972;SDS011;6551;51.056;9.466;2022-10-13T00:34:42;13.07;;;10.57;;
12972;SDS011;6551;51.056;9.466;2022-10-13T00:37:08;18.73;;;10.37;;
12972;SDS011;6551;51.056;9.466;2022-10-13T00:39:33;16.07;;;9.53;;
12972;SDS011;6551;51.056;9.466;2022-10-13T00:42:01;17.00;;;9.80;;
12972;SDS011;6551;51.056;9.466;2022-10-13T00:47:36;18.33;;;9.57;;
12972;SDS011;6551;51.056;9.466;2022-10-13T00:50:09;13.43;;;9.07;;
12972;SDS011;6551;51.056;9.466;2022-10-13T00:52:40;15.23;;;8.97;;
12972;SDS011;6551;51.056;9.466;2022-10-13T00:55:06;14.53;;;8.77;;
12972;SDS011;6551;51.056;9.466;2022-10-13T00:57:36;11.97;;;8.70;;
12972;SDS011;6551;51.056;9.466;2022-10-13T01:00:05;16.97;;;8.60;;
12972;SDS011;6551;51.056;9.466;2022-10-13T01:02:34;15.20;;;9.10;;
12972;SDS011;6551;51.056;9.466;2022-10-13T01:05:02;18.53;;;9.40;;
12972;SDS011;6551;51.056;9.466;2022-10-13T01:07:31;13.53;;;9.33;;
12972;SDS011;6551;51.056;9.466;2022-10-13T01:09:58;17.03;;;9.53;;
12972;SDS011;6551;51.056;9.466;2022-10-13T01:12:33;18.33;;;10.17;;
12972;SDS011;6551;51.056;9.466;2022-10-13T01:15:16;19.27;;;11.47;;
12972;SDS011;6551;51.056;9.466;2022-10-13T01:21:35;15.07;;;10.57;;
12972;SDS011;6551;51.056;9.466;2022-10-13T01:32:41;17.07;;;9.37;;
12972;SDS011;6551;51.056;9.466;2022-10-13T01:43:26;16.83;;;9.43;;
12972;SDS011;6551;51.056;9.466;2022-10-13T01:46:02;16.03;;;10.70;;
12972;SDS011;6551;51.056;9.466;2022-10-13T01:48:39;15.87;;;10.37;;
12972;SDS011;6551;51.056;9.466;2022-10-13T01:51:09;15.70;;;11.07;;
12972;SDS011;6551;51.056;9.466;2022-10-13T01:53:40;12.33;;;9.37;;
12972;SDS011;6551;51.056;9.466;2022-10-13T01:56:08;16.80;;;10.57;;
12972;SDS011;6551;51.056;9.466;2022-10-13T01:58:34;14.20;;;11.13;;
12972;SDS011;6551;51.056;9.466;2022-10-13T02:01:05;14.83;;;10.97;;
12972;SDS011;6551;51.056;9.466;2022-10-13T02:04:03;15.23;;;10.80;;
12972;SDS011;6551;51.056;9.466;2022-10-13T02:06:57;14.57;;;10.87;;
12972;SDS011;6551;51.056;9.466;2022-10-13T02:12:26;15.07;;;11.73;;
12972;SDS011;6551;51.056;9.466;2022-10-13T02:15:06;13.00;;;10.17;;
12972;SDS011;6551;51.056;9.466;2022-10-13T02:17:37;17.30;;;10.80;;
12972;SDS011;6551;51.056;9.466;2022-10-13T02:20:05;19.50;;;12.20;;
12972;SDS011;6551;51.056;9.466;2022-10-13T02:22:32;14.73;;;10.57;;
12972;SDS011;6551;51.056;9.466;2022-10-13T02:25:05;17.10;;;11.60;;
12972;SDS011;6551;51.056;9.466;2022-10-13T02:27:32;15.23;;;11.30;;
12972;SDS011;6551;51.056;9.466;2022-10-13T02:29:58;15.80;;;11.40;;
12972;SDS011;6551;51.056;9.466;2022-10-13T02:32:24;15.97;;;11.93;;
12972;SDS011;6551;51.056;9.466;2022-10-13T02:34:50;17.37;;;10.63;;
12972;SDS011;6551;51.056;9.466;2022-10-13T02:37:15;16.87;;;11.57;;
12972;SDS011;6551;51.056;9.466;2022-10-13T02:39:41;18.87;;;14.17;;
12972;SDS011;6551;51.056;9.466;2022-10-13T02:42:07;62.03;;;15.23;;
12972;SDS011;6551;51.056;9.466;2022-10-13T02:44:33;29.03;;;16.83;;
12972;SDS011;6551;51.056;9.466;2022-10-13T02:46:59;22.70;;;16.03;;
12972;SDS011;6551;51.056;9.466;2022-10-13T02:49:25;19.33;;;14.07;;
12972;SDS011;6551;51.056;9.466;2022-10-13T02:51:51;22.37;;;14.37;;
12972;SDS011;6551;51.056;9.466;2022-10-13T02:54:17;25.83;;;14.07;;
12972;SDS011;6551;51.056;9.466;2022-10-13T02:56:43;20.57;;;13.27;;
12972;SDS011;6551;51.056;9.466;2022-10-13T02:59:09;20.63;;;14.33;;
12972;SDS011;6551;51.056;9.466;2022-10-13T03:01:34;20.97;;;15.10;;
12972;SDS011;6551;51.056;9.466;2022-10-13T03:04:05;45.73;;;16.33;;
12972;SDS011;6551;51.056;9.466;2022-10-13T03:06:34;26.13;;;16.43;;
12972;SDS011;6551;51.056;9.466;2022-10-13T03:09:01;22.50;;;15.87;;
12972;SDS011;6551;51.056;9.466;2022-10-13T03:11:27;72.17;;;16.30;;
12972;SDS011;6551;51.056;9.466;2022-10-13T03:13:53;20.90;;;15.00;;
12972;SDS011;6551;51.056;9.466;2022-10-13T03:16:19;22.37;;;15.83;;
12972;SDS011;6551;51.056;9.466;2022-10-13T03:18:45;40.03;;;19.93;;
12972;SDS011;6551;51.056;9.466;2022-10-13T03:21:10;198.37;;;20.40;;
12972;SDS011;6551;51.056;9.466;2022-10-13T03:23:36;24.77;;;17.60;;
12972;SDS011;6551;51.056;9.466;2022-10-13T03:26:02;29.20;;;18.07;;
12972;SDS011;6551;51.056;9.466;2022-10-13T03:28:28;36.77;;;27.80;;
12972;SDS011;6551;51.056;9.466;2022-10-13T03:31:04;55.17;;;41.97;;
12972;SDS011;6551;51.056;9.466;2022-10-13T03:33:32;45.37;;;31.13;;
12972;SDS011;6551;51.056;9.466;2022-10-13T03:35:59;40.73;;;26.80;;
12972;SDS011;6551;51.056;9.466;2022-10-13T03:38:27;40.23;;;24.20;;
12972;SDS011;6551;51.056;9.466;2022-10-13T03:40:54;36.80;;;25.97;;
12972;SDS011;6551;51.056;9.466;2022-10-13T03:43:20;39.80;;;26.33;;
12972;SDS011;6551;51.056;9.466;2022-10-13T03:45:55;36.67;;;23.10;;
12972;SDS011;6551;51.056;9.466;2022-10-13T03:48:23;33.73;;;22.07;;
12972;SDS011;6551;51.056;9.466;2022-10-13T03:50:49;36.20;;;22.33;;
12972;SDS011;6551;51.056;9.466;2022-10-13T03:53:15;41.43;;;24.60;;
12972;SDS011;6551;51.056;9.466;2022-10-13T03:55:40;43.70;;;24.30;;
12972;SDS011;6551;51.056;9.466;2022-10-13T03:58:06;43.67;;;28.87;;
12972;SDS011;6551;51.056;9.466;2022-10-13T04:00:34;43.93;;;27.07;;
12972;SDS011;6551;51.056;9.466;2022-10-13T04:03:00;30.47;;;20.50;;
12972;SDS011;6551;51.056;9.466;2022-10-13T04:05:25;36.00;;;20.73;;
12972;SDS011;6551;51.056;9.466;2022-10-13T04:07:51;37.00;;;23.00;;
12972;SDS011;6551;51.056;9.466;2022-10-13T04:10:17;41.27;;;23.27;;
12972;SDS011;6551;51.056;9.466;2022-10-13T04:12:42;36.27;;;23.20;;
12972;SDS011;6551;51.056;9.466;2022-10-13T04:15:08;40.97;;;23.70;;
12972;SDS011;6551;51.056;9.466;2022-10-13T04:17:34;40.13;;;24.60;;
12972;SDS011;6551;51.056;9.466;2022-10-13T04:20:00;36.07;;;22.60;;
12972;SDS011;6551;51.056;9.466;2022-10-13T04:22:25;32.30;;;21.80;;
12972;SDS011;6551;51.056;9.466;2022-10-13T04:24:51;36.23;;;22.23;;
12972;SDS011;6551;51.056;9.466;2022-10-13T04:27:17;37.80;;;22.63;;
12972;SDS011;6551;51.056;9.466;2022-10-13T04:29:44;38.40;;;25.13;;
12972;SDS011;6551;51.056;9.466;2022-10-13T04:32:09;39.00;;;23.77;;
12972;SDS011;6551;51.056;9.466;2022-10-13T04:34:35;44.60;;;25.47;;
12972;SDS011;6551;51.056;9.466;2022-10-13T04:37:01;35.33;;;24.03;;
12972;SDS011;6551;51.056;9.466;2022-10-13T04:39:26;40.07;;;24.03;;
12972;SDS011;6551;51.056;9.466;2022-10-13T04:41:52;42.63;;;23.20;;
12972;SDS011;6551;51.056;9.466;2022-10-13T04:44:18;35.47;;;22.73;;
12972;SDS011;6551;51.056;9.466;2022-10-13T04:46:44;38.43;;;25.07;;
12972;SDS011;6551;51.056;9.466;2022-10-13T04:49:10;40.40;;;22.67;;
12972;SDS011;6551;51.056;9.466;2022-10-13T04:51:36;34.80;;;22.87;;
12972;SDS011;6551;51.056;9.466;2022-10-13T04:54:02;36.27;;;23.47;;
12972;SDS011;6551;51.056;9.466;2022-10-13T04:56:29;43.07;;;24.70;;
12972;SDS011;6551;51.056;9.466;2022-10-13T04:58:55;42.00;;;26.93;;
12972;SDS011;6551;51.056;9.466;2022-10-13T05:01:22;44.67;;;24.07;;
12972;SDS011;6551;51.056;9.466;2022-10-13T05:03:53;47.23;;;26.83;;
12972;SDS011;6551;51.056;9.466;2022-10-13T05:06:24;55.23;;;25.43;;
12972;SDS011;6551;51.056;9.466;2022-10-13T05:08:52;53.30;;;28.00;;
12972;SDS011;6551;51.056;9.466;2022-10-13T05:11:18;69.20;;;37.20;;
12972;SDS011;6551;51.056;9.466;2022-10-13T05:13:45;78.43;;;36.50;;
12972;SDS011;6551;51.056;9.466;2022-10-13T05:16:13;85.43;;;38.30;;
12972;SDS011;6551;51.056;9.466;2022-10-13T05:18:41;80.27;;;38.13;;
12972;SDS011;6551;51.056;9.466;2022-10-13T05:21:28;103.33;;;38.60;;
12972;SDS011;6551;51.056;9.466;2022-10-13T05:23:54;116.70;;;42.53;;
12972;SDS011;6551;51.056;9.466;2022-10-13T05:26:23;116.57;;;40.60;;
12972;SDS011;6551;51.056;9.466;2022-10-13T05:28:56;148.80;;;43.93;;
12972;SDS011;6551;51.056;9.466;2022-10-13T05:31:24;164.03;;;43.63;;
12972;SDS011;6551;51.056;9.466;2022-10-13T05:33:51;206.33;;;43.27;;
12972;SDS011;6551;51.056;9.466;2022-10-13T05:36:19;218.57;;;44.10;;
12972;SDS011;6551;51.056;9.466;2022-10-13T05:38:51;307.67;;;45.83;;
12972;SDS011;6551;51.056;9.466;2022-10-13T05:41:20;312.23;;;43.27;;
12972;SDS011;6551;51.056;9.466;2022-10-13T05:43:47;298.30;;;43.43;;
12972;SDS011;6551;51.056;9.466;2022-10-13T05:46:13;167.07;;;42.13;;
12972;SDS011;6551;51.056;9.466;2022-10-13T05:48:39;228.73;;;42.80;;
12972;SDS011;6551;51.056;9.466;2022-10-13T05:51:06;138.77;;;39.63;;
12972;SDS011;6551;51.056;9.466;2022-10-13T05:53:42;224.90;;;40.73;;
12972;SDS011;6551;51.056;9.466;2022-10-13T05:56:14;101.07;;;39.63;;
12972;SDS011;6551;51.056;9.466;2022-10-13T05:58:46;82.00;;;38.47;;
12972;SDS011;6551;51.056;9.466;2022-10-13T06:01:26;74.10;;;34.37;;
12972;SDS011;6551;51.056;9.466;2022-10-13T06:03:58;76.97;;;36.23;;
12972;SDS011;6551;51.056;9.466;2022-10-13T06:06:30;78.37;;;34.40;;
12972;SDS011;6551;51.056;9.466;2022-10-13T06:08:56;72.83;;;37.03;;
12972;SDS011;6551;51.056;9.466;2022-10-13T06:11:21;77.07;;;35.90;;
12972;SDS011;6551;51.056;9.466;2022-10-13T06:13:47;72.97;;;34.80;;
12972;SDS011;6551;51.056;9.466;2022-10-13T06:16:13;61.27;;;32.63;;
12972;SDS011;6551;51.056;9.466;2022-10-13T06:18:38;58.37;;;31.90;;
12972;SDS011;6551;51.056;9.466;2022-10-13T06:21:04;65.63;;;32.90;;
12972;SDS011;6551;51.056;9.466;2022-10-13T06:23:30;52.83;;;30.57;;
12972;SDS011;6551;51.056;9.466;2022-10-13T06:25:55;55.07;;;29.90;;
12972;SDS011;6551;51.056;9.466;2022-10-13T06:28:21;47.37;;;28.57;;
12972;SDS011;6551;51.056;9.466;2022-10-13T06:30:49;50.87;;;26.53;;
12972;SDS011;6551;51.056;9.466;2022-10-13T06:33:20;40.83;;;23.50;;
12972;SDS011;6551;51.056;9.466;2022-10-13T06:35:50;34.23;;;22.07;;
12972;SDS011;6551;51.056;9.466;2022-10-13T06:38:17;34.73;;;21.73;;
12972;SDS011;6551;51.056;9.466;2022-10-13T06:40:43;38.33;;;21.10;;
12972;SDS011;6551;51.056;9.466;2022-10-13T06:43:09;32.20;;;20.67;;
12972;SDS011;6551;51.056;9.466;2022-10-13T06:45:35;34.60;;;20.03;;
12972;SDS011;6551;51.056;9.466;2022-10-13T06:48:01;47.90;;;28.87;;
12972;SDS011;6551;51.056;9.466;2022-10-13T06:50:27;38.70;;;22.60;;
12972;SDS011;6551;51.056;9.466;2022-10-13T06:52:54;39.63;;;25.23;;
12972;SDS011;6551;51.056;9.466;2022-10-13T06:55:20;45.17;;;26.00;;
12972;SDS011;6551;51.056;9.466;2022-10-13T06:57:46;44.13;;;27.03;;
12972;SDS011;6551;51.056;9.466;2022-10-13T07:00:12;41.53;;;28.07;;
12972;SDS011;6551;51.056;9.466;2022-10-13T07:02:38;71.07;;;45.30;;
12972;SDS011;6551;51.056;9.466;2022-10-13T07:05:03;39.43;;;26.43;;
12972;SDS011;6551;51.056;9.466;2022-10-13T07:07:30;56.50;;;36.23;;
12972;SDS011;6551;51.056;9.466;2022-10-13T07:09:55;48.37;;;34.90;;
12972;SDS011;6551;51.056;9.466;2022-10-13T07:12:21;52.53;;;34.67;;
12972;SDS011;6551;51.056;9.466;2022-10-13T07:14:47;37.43;;;26.30;;
12972;SDS011;6551;51.056;9.466;2022-10-13T07:17:13;45.67;;;26.53;;
12972;SDS011;6551;51.056;9.466;2022-10-13T07:19:38;40.67;;;27.30;;
12972;SDS011;6551;51.056;9.466;2022-10-13T07:22:05;46.97;;;28.13;;
12972;SDS011;6551;51.056;9.466;2022-10-13T07:24:31;45.37;;;27.23;;
12972;SDS011;6551;51.056;9.466;2022-10-13T07:26:56;47.50;;;27.33;;
12972;SDS011;6551;51.056;9.466;2022-10-13T07:29:22;43.80;;;26.23;;
12972;SDS011;6551;51.056;9.466;2022-10-13T07:31:48;46.90;;;25.93;;
12972;SDS011;6551;51.056;9.466;2022-10-13T07:34:15;41.87;;;25.57;;
12972;SDS011;6551;51.056;9.466;2022-10-13T07:36:40;44.47;;;26.77;;
12972;SDS011;6551;51.056;9.466;2022-10-13T07:39:07;39.73;;;25.70;;
12972;SDS011;6551;51.056;9.466;2022-10-13T07:41:34;43.07;;;25.50;;
12972;SDS011;6551;51.056;9.466;2022-10-13T07:44:00;38.67;;;24.90;;
12972;SDS011;6551;51.056;9.466;2022-10-13T07:46:26;39.40;;;24.70;;
12972;SDS011;6551;51.056;9.466;2022-10-13T07:48:52;38.90;;;25.10;;
12972;SDS011;6551;51.056;9.466;2022-10-13T07:51:18;39.73;;;24.70;;
12972;SDS011;6551;51.056;9.466;2022-10-13T07:53:45;40.17;;;24.43;;
12972;SDS011;6551;51.056;9.466;2022-10-13T07:56:14;40.00;;;24.90;;
12972;SDS011;6551;51.056;9.466;2022-10-13T07:58:42;38.10;;;23.13;;
12972;SDS011;6551;51.056;9.466;2022-10-13T08:01:11;36.43;;;23.97;;
12972;SDS011;6551;51.056;9.466;2022-10-13T08:03:38;33.53;;;23.30;;
12972;SDS011;6551;51.056;9.466;2022-10-13T08:06:05;36.07;;;23.27;;
12972;SDS011;6551;51.056;9.466;2022-10-13T08:11:10;33.70;;;22.73;;
12972;SDS011;6551;51.056;9.466;2022-10-13T08:13:38;34.47;;;22.70;;
12972;SDS011;6551;51.056;9.466;2022-10-13T08:16:03;33.20;;;23.43;;
12972;SDS011;6551;51.056;9.466;2022-10-13T08:18:30;31.50;;;21.33;;
12972;SDS011;6551;51.056;9.466;2022-10-13T08:20:58;29.50;;;23.07;;
12972;SDS011;6551;51.056;9.466;2022-10-13T08:23:27;32.13;;;21.20;;
12972;SDS011;6551;51.056;9.466;2022-10-13T08:25:53;30.87;;;21.77;;
12972;SDS011;6551;51.056;9.466;2022-10-13T08:28:21;36.33;;;23.73;;
12972;SDS011;6551;51.056;9.466;2022-10-13T08:30:53;34.00;;;23.03;;
12972;SDS011;6551;51.056;9.466;2022-10-13T08:33:23;32.53;;;23.73;;
12972;SDS011;6551;51.056;9.466;2022-10-13T08:35:50;35.80;;;23.93;;
12972;SDS011;6551;51.056;9.466;2022-10-13T08:38:17;35.20;;;23.30;;
12972;SDS011;6551;51.056;9.466;2022-10-13T08:40:47;34.30;;;22.80;;
12972;SDS011;6551;51.056;9.466;2022-10-13T08:43:14;33.00;;;23.33;;
12972;SDS011;6551;51.056;9.466;2022-10-13T08:45:50;37.07;;;22.67;;
12972;SDS011;6551;51.056;9.466;2022-10-13T08:48:23;34.47;;;22.67;;
12972;SDS011;6551;51.056;9.466;2022-10-13T08:50:55;34.53;;;23.03;;
12972;SDS011;6551;51.056;9.466;2022-10-13T08:53:29;38.93;;;24.37;;
12972;SDS011;6551;51.056;9.466;2022-10-13T08:56:18;32.57;;;22.13;;
12972;SDS011;6551;51.056;9.466;2022-10-13T08:58:49;33.33;;;24.57;;
12972;SDS011;6551;51.056;9.466;2022-10-13T09:03:49;31.93;;;22.97;;
12972;SDS011;6551;51.056;9.466;2022-10-13T09:06:52;30.73;;;21.97;;
12972;SDS011;6551;51.056;9.466;2022-10-13T09:09:31;36.27;;;21.60;;
12972;SDS011;6551;51.056;9.466;2022-10-13T09:11:57;31.83;;;20.93;;
12972;SDS011;6551;51.056;9.466;2022-10-13T09:14:34;35.00;;;20.63;;
12972;SDS011;6551;51.056;9.466;2022-10-13T09:17:12;30.13;;;19.83;;
12972;SDS011;6551;51.056;9.466;2022-10-13T09:19:45;26.30;;;19.57;;
12972;SDS011;6551;51.056;9.466;2022-10-13T09:25:47;31.00;;;19.20;;
12972;SDS011;6551;51.056;9.466;2022-10-13T09:28:29;31.63;;;20.30;;
12972;SDS011;6551;51.056;9.466;2022-10-13T09:33:59;27.40;;;19.53;;
12972;SDS011;6551;51.056;9.466;2022-10-13T09:36:36;29.73;;;18.37;;
12972;SDS011;6551;51.056;9.466;2022-10-13T09:39:12;26.57;;;18.37;;
12972;SDS011;6551;51.056;9.466;2022-10-13T09:41:41;26.30;;;18.83;;
12972;SDS011;6551;51.056;9.466;2022-10-13T09:44:09;23.27;;;18.47;;
12972;SDS011;6551;51.056;9.466;2022-10-13T09:49:35;26.63;;;18.57;;
12972;SDS011;6551;51.056;9.466;2022-10-13T09:57:31;27.80;;;18.40;;
12972;SDS011;6551;51.056;9.466;2022-10-13T10:00:20;25.80;;;17.60;;
12972;SDS011;6551;51.056;9.466;2022-10-13T10:06:02;28.27;;;17.83;;
12972;SDS011;6551;51.056;9.466;2022-10-13T10:11:32;23.60;;;18.03;;
12972;SDS011;6551;51.056;9.466;2022-10-13T10:22:57;29.30;;;17.50;;
12972;SDS011;6551;51.056;9.466;2022-10-13T10:25:48;25.43;;;17.03;;
12972;SDS011;6551;51.056;9.466;2022-10-13T10:43:44;19.77;;;14.53;;
12972;SDS011;6551;51.056;9.466;2022-10-13T10:45:55;21.27;;;14.70;;
12972;SDS011;6551;51.056;9.466;2022-10-13T10:48:24;19.87;;;13.67;;
12972;SDS011;6551;51.056;9.466;2022-10-13T10:51:00;24.47;;;14.97;;
12972;SDS011;6551;51.056;9.466;2022-10-13T10:56:33;25.03;;;14.20;;
12972;SDS011;6551;51.056;9.466;2022-10-13T11:06:03;22.47;;;15.00;;
12972;SDS011;6551;51.056;9.466;2022-10-13T11:08:57;25.87;;;14.83;;
12972;SDS011;6551;51.056;9.466;2022-10-13T11:13:51;21.47;;;13.43;;
12972;SDS011;6551;51.056;9.466;2022-10-13T11:16:39;20.23;;;13.73;;
12972;SDS011;6551;51.056;9.466;2022-10-13T11:19:27;20.40;;;13.37;;
12972;SDS011;6551;51.056;9.466;2022-10-13T11:46:54;16.73;;;11.70;;
12972;SDS011;6551;51.056;9.466;2022-10-13T11:56:48;19.90;;;11.10;;
12972;SDS011;6551;51.056;9.466;2022-10-13T11:59:35;22.27;;;10.73;;
12972;SDS011;6551;51.056;9.466;2022-10-13T12:04:35;18.17;;;11.17;;
12972;SDS011;6551;51.056;9.466;2022-10-13T12:07:03;17.47;;;11.30;;
12972;SDS011;6551;51.056;9.466;2022-10-13T12:09:39;19.40;;;11.60;;
12972;SDS011;6551;51.056;9.466;2022-10-13T12:12:21;15.80;;;11.63;;
12972;SDS011;6551;51.056;9.466;2022-10-13T12:14:49;18.63;;;11.93;;
12972;SDS011;6551;51.056;9.466;2022-10-13T12:19:47;18.83;;;11.63;;
12972;SDS011;6551;51.056;9.466;2022-10-13T12:22:13;16.20;;;9.97;;
12972;SDS011;6551;51.056;9.466;2022-10-13T12:24:39;21.23;;;11.07;;
12972;SDS011;6551;51.056;9.466;2022-10-13T12:27:09;16.67;;;10.87;;
12972;SDS011;6551;51.056;9.466;2022-10-13T12:29:44;21.53;;;12.47;;
12972;SDS011;6551;51.056;9.466;2022-10-13T12:35:19;19.13;;;11.97;;
12972;SDS011;6551;51.056;9.466;2022-10-13T12:37:59;16.27;;;11.13;;
12972;SDS011;6551;51.056;9.466;2022-10-13T12:40:31;16.83;;;13.50;;
12972;SDS011;6551;51.056;9.466;2022-10-13T12:42:57;15.10;;;12.03;;
12972;SDS011;6551;51.056;9.466;2022-10-13T12:45:25;22.67;;;13.40;;
12972;SDS011;6551;51.056;9.466;2022-10-13T12:47:56;19.47;;;12.17;;
12972;SDS011;6551;51.056;9.466;2022-10-13T12:50:30;21.90;;;13.70;;
12972;SDS011;6551;51.056;9.466;2022-10-13T12:55:56;21.77;;;11.27;;
12972;SDS011;6551;51.056;9.466;2022-10-13T12:58:26;22.50;;;11.80;;
12972;SDS011;6551;51.056;9.466;2022-10-13T13:01:05;17.43;;;11.00;;
12972;SDS011;6551;51.056;9.466;2022-10-13T13:03:31;21.07;;;12.33;;
12972;SDS011;6551;51.056;9.466;2022-10-13T13:06:07;19.80;;;11.90;;
12972;SDS011;6551;51.056;9.466;2022-10-13T13:08:40;22.70;;;12.43;;
12972;SDS011;6551;51.056;9.466;2022-10-13T13:11:19;27.93;;;11.77;;
12972;SDS011;6551;51.056;9.466;2022-10-13T13:17:06;18.93;;;11.93;;
12972;SDS011;6551;51.056;9.466;2022-10-13T13:19:43;20.77;;;11.90;;
12972;SDS011;6551;51.056;9.466;2022-10-13T13:22:12;17.70;;;11.33;;
12972;SDS011;6551;51.056;9.466;2022-10-13T13:24:38;18.47;;;11.30;;
12972;SDS011;6551;51.056;9.466;2022-10-13T13:29:45;19.23;;;10.90;;
12972;SDS011;6551;51.056;9.466;2022-10-13T13:32:12;19.13;;;11.20;;
12972;SDS011;6551;51.056;9.466;2022-10-13T13:34:41;22.30;;;11.80;;
12972;SDS011;6551;51.056;9.466;2022-10-13T13:37:41;18.87;;;11.70;;
12972;SDS011;6551;51.056;9.466;2022-10-13T13:40:05;18.73;;;11.07;;
12972;SDS011;6551;51.056;9.466;2022-10-13T13:42:40;17.93;;;11.50;;
12972;SDS011;6551;51.056;9.466;2022-10-13T13:45:06;17.37;;;10.70;;
12972;SDS011;6551;51.056;9.466;2022-10-13T13:47:36;17.90;;;10.33;;
12972;SDS011;6551;51.056;9.466;2022-10-13T13:50:02;14.47;;;10.80;;
12972;SDS011;6551;51.056;9.466;2022-10-13T13:52:34;18.43;;;11.90;;
12972;SDS011;6551;51.056;9.466;2022-10-13T13:54:59;18.37;;;11.40;;
12972;SDS011;6551;51.056;9.466;2022-10-13T13:57:25;18.97;;;11.67;;
12972;SDS011;6551;51.056;9.466;2022-10-13T13:59:51;17.57;;;12.20;;
12972;SDS011;6551;51.056;9.466;2022-10-13T14:02:18;19.10;;;11.37;;
12972;SDS011;6551;51.056;9.466;2022-10-13T14:04:45;22.90;;;13.07;;
12972;SDS011;6551;51.056;9.466;2022-10-13T14:07:11;18.20;;;12.13;;
12972;SDS011;6551;51.056;9.466;2022-10-13T14:09:37;21.23;;;13.73;;
12972;SDS011;6551;51.056;9.466;2022-10-13T14:12:03;21.33;;;13.27;;
12972;SDS011;6551;51.056;9.466;2022-10-13T14:14:30;18.00;;;13.33;;
12972;SDS011;6551;51.056;9.466;2022-10-13T14:16:57;21.47;;;13.00;;
12972;SDS011;6551;51.056;9.466;2022-10-13T14:19:28;22.57;;;13.67;;
12972;SDS011;6551;51.056;9.466;2022-10-13T14:21:55;24.37;;;14.40;;
12972;SDS011;6551;51.056;9.466;2022-10-13T14:24:21;27.13;;;14.00;;
12972;SDS011;6551;51.056;9.466;2022-10-13T14:26:46;24.00;;;13.30;;
12972;SDS011;6551;51.056;9.466;2022-10-13T14:29:12;28.93;;;14.27;;
12972;SDS011;6551;51.056;9.466;2022-10-13T14:31:38;21.60;;;14.23;;
12972;SDS011;6551;51.056;9.466;2022-10-13T14:34:04;31.03;;;14.40;;
12972;SDS011;6551;51.056;9.466;2022-10-13T14:36:31;20.33;;;13.57;;
12972;SDS011;6551;51.056;9.466;2022-10-13T14:38:57;21.63;;;13.90;;
12972;SDS011;6551;51.056;9.466;2022-10-13T14:41:23;25.73;;;14.13;;
12972;SDS011;6551;51.056;9.466;2022-10-13T14:43:53;20.53;;;14.53;;
12972;SDS011;6551;51.056;9.466;2022-10-13T14:46:20;24.03;;;14.30;;
12972;SDS011;6551;51.056;9.466;2022-10-13T14:48:47;21.83;;;13.83;;
12972;SDS011;6551;51.056;9.466;2022-10-13T14:51:13;21.67;;;14.53;;
12972;SDS011;6551;51.056;9.466;2022-10-13T14:53:41;23.70;;;15.07;;
12972;SDS011;6551;51.056;9.466;2022-10-13T14:56:21;25.80;;;15.10;;
12972;SDS011;6551;51.056;9.466;2022-10-13T14:58:50;22.73;;;16.63;;
12972;SDS011;6551;51.056;9.466;2022-10-13T15:01:18;23.13;;;15.50;;
12972;SDS011;6551;51.056;9.466;2022-10-13T15:03:45;26.83;;;15.50;;
12972;SDS011;6551;51.056;9.466;2022-10-13T15:06:15;29.13;;;15.97;;
12972;SDS011;6551;51.056;9.466;2022-10-13T15:08:44;31.07;;;16.27;;
12972;SDS011;6551;51.056;9.466;2022-10-13T15:11:10;24.07;;;15.87;;
12972;SDS011;6551;51.056;9.466;2022-10-13T15:13:37;26.10;;;16.90;;
12972;SDS011;6551;51.056;9.466;2022-10-13T15:16:03;24.00;;;18.30;;
12972;SDS011;6551;51.056;9.466;2022-10-13T15:18:31;26.87;;;18.97;;
12972;SDS011;6551;51.056;9.466;2022-10-13T15:20:59;26.43;;;17.23;;
12972;SDS011;6551;51.056;9.466;2022-10-13T15:23:25;24.97;;;18.57;;
12972;SDS011;6551;51.056;9.466;2022-10-13T15:25:55;25.10;;;18.83;;
12972;SDS011;6551;51.056;9.466;2022-10-13T15:28:23;30.33;;;19.47;;
12972;SDS011;6551;51.056;9.466;2022-10-13T15:30:51;25.47;;;17.33;;
12972;SDS011;6551;51.056;9.466;2022-10-13T15:33:17;33.07;;;20.10;;
12972;SDS011;6551;51.056;9.466;2022-10-13T15:35:50;25.50;;;21.03;;
12972;SDS011;6551;51.056;9.466;2022-10-13T15:38:22;24.77;;;19.43;;
12972;SDS011;6551;51.056;9.466;2022-10-13T15:40:48;29.43;;;18.73;;
12972;SDS011;6551;51.056;9.466;2022-10-13T15:43:15;27.87;;;18.43;;
12972;SDS011;6551;51.056;9.466;2022-10-13T15:45:42;29.37;;;19.33;;
12972;SDS011;6551;51.056;9.466;2022-10-13T15:48:17;25.10;;;18.33;;
12972;SDS011;6551;51.056;9.466;2022-10-13T15:50:42;24.10;;;18.00;;
12972;SDS011;6551;51.056;9.466;2022-10-13T15:53:08;28.07;;;17.93;;
12972;SDS011;6551;51.056;9.466;2022-10-13T15:55:34;27.37;;;18.37;;
12972;SDS011;6551;51.056;9.466;2022-10-13T15:57:59;23.20;;;17.60;;
12972;SDS011;6551;51.056;9.466;2022-10-13T16:00:25;25.87;;;17.37;;
12972;SDS011;6551;51.056;9.466;2022-10-13T16:02:51;29.83;;;19.00;;
12972;SDS011;6551;51.056;9.466;2022-10-13T16:05:18;26.37;;;19.03;;
12972;SDS011;6551;51.056;9.466;2022-10-13T16:07:44;31.23;;;18.80;;
12972;SDS011;6551;51.056;9.466;2022-10-13T16:10:10;28.87;;;19.73;;
12972;SDS011;6551;51.056;9.466;2022-10-13T16:12:38;33.90;;;19.73;;
12972;SDS011;6551;51.056;9.466;2022-10-13T16:15:05;25.53;;;17.10;;
12972;SDS011;6551;51.056;9.466;2022-10-13T16:17:32;30.57;;;19.73;;
12972;SDS011;6551;51.056;9.466;2022-10-13T16:19:58;27.07;;;17.77;;
12972;SDS011;6551;51.056;9.466;2022-10-13T16:22:24;28.77;;;19.73;;
12972;SDS011;6551;51.056;9.466;2022-10-13T16:24:49;38.10;;;28.23;;
12972;SDS011;6551;51.056;9.466;2022-10-13T16:27:15;38.27;;;25.77;;
12972;SDS011;6551;51.056;9.466;2022-10-13T16:29:41;37.07;;;24.47;;
12972;SDS011;6551;51.056;9.466;2022-10-13T16:32:07;35.60;;;24.97;;
12972;SDS011;6551;51.056;9.466;2022-10-13T16:34:32;26.20;;;18.97;;
12972;SDS011;6551;51.056;9.466;2022-10-13T16:36:58;27.93;;;16.83;;
12972;SDS011;6551;51.056;9.466;2022-10-13T16:39:24;25.10;;;16.93;;
12972;SDS011;6551;51.056;9.466;2022-10-13T16:41:50;22.97;;;15.77;;
12972;SDS011;6551;51.056;9.466;2022-10-13T16:44:16;23.23;;;16.40;;
12972;SDS011;6551;51.056;9.466;2022-10-13T16:46:42;29.77;;;17.17;;
12972;SDS011;6551;51.056;9.466;2022-10-13T16:49:09;33.27;;;21.17;;
12972;SDS011;6551;51.056;9.466;2022-10-13T16:51:35;29.67;;;23.27;;
12972;SDS011;6551;51.056;9.466;2022-10-13T16:54:01;50.67;;;37.60;;
12972;SDS011;6551;51.056;9.466;2022-10-13T16:56:27;58.20;;;45.13;;
12972;SDS011;6551;51.056;9.466;2022-10-13T16:58:54;51.37;;;39.00;;
12972;SDS011;6551;51.056;9.466;2022-10-13T17:01:25;37.30;;;28.83;;